Details From EBCI - Brussels South - Charleroi
To LFMT - Montpellier/mediterranee
Flight Number -
Tags Generated
Created
Modified
Stats Distance 414 nm / 768 km
Max Altitude 0 ft / 0 m
Waypoints 3
Social Downloads 0
Likes 0
Share

Download

Looking for another format? Having issues loading an existing format? Contact us
Advertisement - Login to hide

Notes

Generated

Route

EBCI MT134 LFMT

ID Type Via Altitude (ft/m) Position (lat/lon) Dist (leg/tot) Name
O EBCI APT - 0 / 0 50.45539 / 4.43664 - / 0 nm
MT134 FIX - 0 / 0 43.70183 / 3.87906 406 / 406 nm
O LFMT APT - 0 / 0 43.57586 / 3.95193 8 / 414 nm

Altitude Profile

Advertisement - Login to hide

Weather


0- 5 10 15 20 25 30 35+ Temperature / °C

Clouds and Precipitation
Forecast for 2021-03-22 12:00 UTC. Updated 24 days ago

Ground ~20,000 ft ~40,000 ft Winds

EBCI

Details ICAO EBCI (CRL)
Name Brussels South - Charleroi
Region Belgium
Timezone Europe/Brussels (UTC+2.0)
Stats Elevation 612 ft / 187 m (AMSL)
Location 50.459900° 4.453110°
Runways 1
Magnetic Variation 1.587° E

METAR

EBCI 150750Z 02005KT 360V060 9999 FEW012 04/01 Q1030 NOSIG

Decode

TAF

TAF EBCI 150510Z 1506/1612 04008KT 9999 SCT020

Decode

Departure Runways

ID Width Length Bearing (true/mag) Surface Threshold Overrun Markings Lighting
06 148 ft / 45 m 8,347 ft / 2,544 m 65.45° / 63.86° ASPHALT 1,470 ft / 448 m 0 ft / 0 m PREC-APP CENTERLINE EDGE THRESHOLD MALS TDZ REIL-UNI
24 148 ft / 45 m 8,347 ft / 2,544 m 245.48° / 243.89° ASPHALT 0 ft / 0 m 0 ft / 0 m UK-PREC-APP CENTERLINE EDGE THRESHOLD ALSF-I REIL-OMNI

LFMT

Details ICAO LFMT (MPL)
Name Montpellier/Mediterranee
Region France
Timezone Europe/Paris (UTC+2.0)
Stats Elevation 17 ft / 5 m (AMSL)
Location 43.576200° 3.963250°
Runways 2
Magnetic Variation 1.634° E

METAR

LFMT 150800Z AUTO 02017KT CAVOK 12/M05 Q1021 TEMPO 02015G25KT

Decode

TAF

TAF LFMT 150200Z 1503/1603 02012KT CAVOK TEMPO 1508/1511 02015G25KT= TAF LFTW 150200Z 1503/1603 02012KT CAVOK

Decode

Destination Runways

ID Width Length Bearing (true/mag) Surface Threshold Overrun Markings Lighting
12L 164 ft / 50 m 8,539 ft / 2,603 m 124.83° / 123.20° ASPHALT 0 ft / 0 m 0 ft / 0 m PREC-APP CENTERLINE EDGE THRESHOLD
12R 98 ft / 30 m 3,612 ft / 1,101 m 124.80° / 123.17° ASPHALT 328 ft / 100 m 0 ft / 0 m VISUAL
30L 98 ft / 30 m 3,612 ft / 1,101 m 304.81° / 303.17° ASPHALT 0 ft / 0 m 0 ft / 0 m VISUAL
30R 164 ft / 50 m 8,539 ft / 2,603 m 304.85° / 303.22° ASPHALT 0 ft / 0 m 0 ft / 0 m PREC-APP CENTERLINE EDGE THRESHOLD ALSF-I

Approach Navaids

Runway Type Ident Frequency Range Bearing (true/mag) Slope Elevation
30R LOC-ILS FG 108.55 MHz 18 nm / 33 km 304.75° / 303.12 ° - 16 ft / 5 m (AMSL)
30R GS FG 108.55 MHz 10 nm / 19 km 305.50° / 303.87 ° 3.00° 16 ft / 5 m (AMSL)

Popular Alternatives